Private Wetterstation Nrnberg - Katzwang
Wetterdaten: Mai 2014
Datum Temp. A. Feuchte A. Luftdruck Regen Wind Richtung Taupunkt Windchill Windben
01.05.2014 14,8 C 75 % 1008 hPa 0,5 l/m 0,0 km/h W-NW 10,3 C 14,8 C 1,0 km/h
02.05.2014 10,7 C 78 % 1010 hPa 6,7 l/m 1,0 km/h N-NO 7,1 C 10,7 C 2,0 km/h
03.05.2014 7,7 C 71 % 1018 hPa 0,0 l/m 8,1 km/h N-NO 2,8 C 5,9 C 9,1 km/h
04.05.2014 9,6 C 64 % 1018 hPa 0,0 l/m 0,0 km/h N-NO 2,7 C 9,6 C 1,0 km/h
05.05.2014 12,4 C 59 % 1015 hPa 0,0 l/m 4,8 km/h NO 4,0 C 11,7 C 5,8 km/h
06.05.2014 17,2 C 58 % 1010 hPa 0,0 l/m 1,9 km/h NO 8,2 C 17,0 C 2,9 km/h
07.05.2014 14,2 C 71 % 1011 hPa 3,6 l/m 3,8 km/h N-NO 9,0 C 13,9 C 4,8 km/h
08.05.2014 14,8 C 70 % 1012 hPa 1,0 l/m 1,7 km/h W-NW 9,3 C 14,7 C 2,7 km/h
09.05.2014 16,5 C 63 % 1012 hPa 2,6 l/m 4,1 km/h W-NW 9,1 C 16,0 C 5,1 km/h
10.05.2014 14,9 C 71 % 1010 hPa 4,7 l/m 6,5 km/h W-NW 9,3 C 13,3 C 7,5 km/h
11.05.2014 12,3 C 67 % 1006 hPa 3,6 l/m 10,8 km/h W-NW 6,1 C 9,7 C 15,5 km/h
12.05.2014 10,9 C 69 % 1010 hPa 3,1 l/m 5,7 km/h W-NW 5,2 C 9,7 C 11,8 km/h
13.05.2014 10,2 C 76 % 1014 hPa 7,3 l/m 1,2 km/h W-NW 6,2 C 10,2 C 2,2 km/h
14.05.2014 9,4 C 73 % 1023 hPa 2,1 l/m 2,4 km/h W-NW 4,6 C 9,4 C 3,4 km/h
15.05.2014 10,3 C 69 % 1027 hPa 0,0 l/m 2,2 km/h N-NO 4,7 C 10,3 C 3,2 km/h
16.05.2014 13,6 C 58 % 1022 hPa 0,0 l/m 7,0 km/h N-NO 5,2 C 12,7 C 9,4 km/h
17.05.2014 14,4 C 65 % 1017 hPa 0,0 l/m 0,5 km/h N-NO 7,7 C 14,4 C 1,5 km/h
18.05.2014 14,0 C 71 % 1011 hPa 0,5 l/m 5,3 km/h N-NO 8,8 C 13,2 C 6,3 km/h
19.05.2014 18,3 C 59 % 1008 hPa 0,0 l/m 3,6 km/h NO 9,5 C 17,9 C 4,6 km/h
20.05.2014 20,7 C 52 % 1011 hPa 0,0 l/m 6,5 km/h O-NO 9,7 C 20,2 C 7,5 km/h
21.05.2014 21,4 C 53 % 1010 hPa 0,0 l/m 3,8 km/h O 10,7 C 21,1 C 6,7 km/h
22.05.2014 23,7 C 52 % 1006 hPa 3,6 l/m 1,5 km/h O-NO 12,7 C 23,7 C 2,5 km/h
23.05.2014 16,6 C 71 % 1009 hPa 0,0 l/m 3,3 km/h W-NW 11,2 C 16,3 C 4,3 km/h
24.05.2014 17,5 C 64 % 1014 hPa 0,0 l/m 2,6 km/h W-NW 10,4 C 17,2 C 3,6 km/h
25.05.2014 18,8 C 54 % 1015 hPa 0,0 l/m 2,7 km/h N-NO 8,7 C 18,5 C 3,7 km/h
26.05.2014 16,4 C 80 % 1010 hPa 24,9 l/m 0,9 km/h NO 12,9 C 16,4 C 1,9 km/h
27.05.2014 16,1 C 76 % 1008 hPa 1,6 l/m 7,9 km/h W-NW 11,7 C 15,0 C 10,3 km/h
28.05.2014 13,4 C 82 % 1009 hPa 8,3 l/m 0,0 km/h W-NW 10,3 C 13,4 C 1,0 km/h
29.05.2014 11,3 C 84 % 1013 hPa 7,3 l/m 6,5 km/h N-NO 8,6 C 9,2 C 7,5 km/h
30.05.2014 10,6 C 76 % 1018 hPa 0,0 l/m 1,2 km/h NO 6,4 C 10,6 C 2,2 km/h
31.05.2014 14,2 C 64 % 1018 hPa 0,0 l/m 2,0 km/h N-NO 7,1 C 14,0 C 3,0 km/h
Min-Datum 05.05.14 22.05.14 22.05.14 16 Tage 01.05.14 - 05.05.14 03.05.14 01.05.14
Min-Zeit 05:40 17:10 20:10 - 00:00 - 05:40 05:10 00:00
Minimum 2,8 C 28 % 1004 hPa - 0,0 km/h - -0,3 C -3,1 C 1,0 km/h
Max-Datum 22.05.14 26.05.14 15.05.14 26.05.14 21.05.14 - 26.05.14 22.05.14 11.05.14
Max-Zeit 15:40 23:10 10:10 14:20 13:40 - 11:10 15:40 17:30
Maximum 32,1 C 85 % 1028 hPa 24,9 l/m 33,5 km/h
O
- 15,8 C 32,1 C 61,2 km/h
W-NW
Durchschnitt 14,4 C 67 % 1013 hPa #81,3 l/m 3,5 km/h N-NO 8,1 C 13,9 C 5,0 km/h

Durchschnitt Minimum Temp.9,2 C
Durchschnitt Maximum Temp.19,7 C